Hauptseite
METAR-TAF:

METAR-TAF

Flughäfen :

Leuchars, Schottland

Breite: 56-23N, Länge: 002-52W, Höhe: 12 m

Beobachtung

Neuester Wetterbericht von vor 1 Stunde und 5 Minuten, um 08:50 UTC
Wind 9 kt aus Ost
Temperatur 13°C
Luftfeuchtigkeit 62%
Luftdruck 1037 hPa
Sichtweite 10 km oder mehr
Leicht bewölkt in der Höhe von 2800 ft
Aufgelockert bewölkt in der Höhe von 9000 ft

METAR: EGQL 270850Z 08009KT 9999 FEW028 SCT090 13/06 Q1037 BLU

Zeit: 10:55 (09:55 UTC)

Prognose

Neuester Wetterbericht von vor 2 Stunden und 16 Minuten, um 07:39 UTC
Gültige Prognose vom 27 um 09 UTC bis 27 um 18 UTC
Wind 8 kt aus Nordwest
Sichtweite 10 km oder mehr
keine Wolken unter 1500 m und keine Kumulonimbus oder Gewitterwolken

TAF: EGQL 270739Z 2709/2718 31008KT CAVOK

Wetterbeobachtungen und Prognosen von mehr als 4000 Flughäfen (METAR und TAF Bericht).

Die verfügbaren Stationen werden durch gelbe und rote Markierungen auf der Karte dargestellt.

Führen Sie die Maus auf sie, um den Namen der Station zu sehen.

Darauf klicken, um die Beobachtung von Wetterbeobachtungen und Prognosen zu sehen.

Um die Karte zu ändern : klicken Sie auf den grünen Tasten mit einem schwarzen Kreuz Zum Vergrößern, auf den grünen Button mit einem Gedankenstrich zu verkleinern, oder auf die grünen Pfeile für benachbarte Karten.


METAR-TAF: